Time;durP1;ratioP1;P1;durP2;ratioP2;P2;SDS_P1;SDS_P2;PMS_P1;PMS_P2;Temp;Humidity;BMP_temperature;BMP_pressure;BME280_temperature;BME280_humidity;BME280_pressure;Samples;Min_cycle;Max_cycle;Signal;HPM_P1;HPM_P2
2021/11/04 00:00:51;;;;;;;155.90;71.02;;;;;;;4.59;73.74;94360.25;1685223;83;21065;-57
2021/11/04 00:03:18;;;;;;;156.63;73.35;;;;;;;4.59;73.58;94358.28;1669221;84;21076;-58
2021/11/04 00:05:44;;;;;;;157.95;73.28;;;;;;;4.55;73.64;94363.61;1686390;83;21034;-58
2021/11/04 00:08:13;;;;;;;162.43;75.08;;;;;;;4.53;73.67;94344.20;1683186;84;21156;-56
2021/11/04 00:10:40;;;;;;;159.40;73.05;;;;;;;4.52;73.87;94342.66;1685531;83;21178;-57
2021/11/04 00:13:07;;;;;;;154.05;72.82;;;;;;;4.58;73.77;94347.22;1686571;83;21052;-56
2021/11/04 00:15:35;;;;;;;161.25;77.70;;;;;;;4.64;73.71;94337.36;1682269;84;20985;-57
2021/11/04 00:18:03;;;;;;;136.22;66.05;;;;;;;4.68;73.68;94325.82;1682810;84;21509;-58
2021/11/04 00:20:31;;;;;;;126.75;60.60;;;;;;;4.75;73.70;94327.03;1679113;83;20971;-57
2021/11/04 00:22:58;;;;;;;121.72;60.35;;;;;;;4.82;73.57;94320.06;1682697;83;21206;-58
2021/11/04 00:25:24;;;;;;;119.28;59.42;;;;;;;4.83;73.26;94318.13;1689863;84;21512;-58
2021/11/04 00:27:51;;;;;;;131.90;63.15;;;;;;;4.81;73.20;94313.08;1688588;84;21560;-58
2021/11/04 00:30:19;;;;;;;116.62;56.92;;;;;;;4.77;73.13;94310.27;1684004;84;21144;-58
2021/11/04 00:32:50;;;;;;;130.70;60.48;;;;;;;4.74;73.27;94311.88;1689618;84;20977;-57
2021/11/04 00:35:17;;;;;;;140.62;66.70;;;;;;;4.77;73.36;94312.39;1689417;83;21730;-56
2021/11/04 00:37:44;;;;;;;137.65;65.83;;;;;;;4.75;73.41;94306.59;1682962;84;20974;-60
2021/11/04 00:40:13;;;;;;;112.05;57.80;;;;;;;4.80;73.74;94292.47;1685082;83;21435;-57
2021/11/04 00:42:40;;;;;;;99.80;50.08;;;;;;;4.87;73.51;94286.11;1687271;83;21120;-57
2021/11/04 00:45:08;;;;;;;106.67;51.30;;;;;;;4.89;73.41;94295.41;1684512;83;20986;-57
2021/11/04 00:47:37;;;;;;;115.60;55.85;;;;;;;4.87;73.33;94286.89;1686282;83;21049;-57
2021/11/04 00:50:06;;;;;;;154.63;67.80;;;;;;;4.84;73.36;94294.55;1689417;84;21176;-58
2021/11/04 00:52:34;;;;;;;166.77;70.40;;;;;;;4.80;73.44;94306.09;1659104;85;21061;-57
2021/11/04 00:55:00;;;;;;;152.27;69.62;;;;;;;4.78;73.71;94330.27;1681739;84;21124;-57
2021/11/04 00:57:27;;;;;;;157.85;71.97;;;;;;;4.83;73.82;94314.78;1685242;83;21075;-58
2021/11/04 00:59:53;;;;;;;155.43;68.30;;;;;;;4.85;73.99;94311.07;1681887;84;21130;-58
2021/11/04 01:02:20;;;;;;;142.43;68.02;;;;;;;4.82;74.09;94311.13;1680894;84;21575;-57
2021/11/04 01:04:47;;;;;;;143.15;66.05;;;;;;;4.78;74.30;94324.82;1682736;83;20981;-59
2021/11/04 01:07:14;;;;;;;143.95;63.58;;;;;;;4.79;74.33;94316.82;1683649;84;20957;-57
2021/11/04 01:09:41;;;;;;;129.50;58.70;;;;;;;4.83;74.36;94323.56;1690963;83;20983;-57
2021/11/04 01:12:08;;;;;;;106.70;49.83;;;;;;;4.82;74.30;94332.33;1682874;83;21100;-56
2021/11/04 01:14:35;;;;;;;113.25;55.35;;;;;;;4.79;74.26;94326.36;1684500;83;21038;-57
2021/11/04 01:17:02;;;;;;;110.63;55.88;;;;;;;4.81;74.49;94321.86;1695060;83;21033;-58
2021/11/04 01:19:29;;;;;;;111.15;52.27;;;;;;;4.84;74.59;94323.74;1692068;83;21457;-57
2021/11/04 01:21:56;;;;;;;95.00;48.17;;;;;;;4.89;74.62;94330.84;1686458;83;21025;-58
2021/11/04 01:24:23;;;;;;;90.90;45.60;;;;;;;4.94;74.40;94337.14;1682738;85;21142;-57
2021/11/04 01:26:49;;;;;;;90.60;44.98;;;;;;;4.96;74.28;94344.30;1682129;85;20990;-57
2021/11/04 01:29:16;;;;;;;76.50;40.83;;;;;;;4.97;74.19;94355.38;1683165;83;21501;-57
2021/11/04 01:31:44;;;;;;;108.05;51.85;;;;;;;4.97;74.11;94360.08;1684382;84;21548;-57
2021/11/04 01:34:11;;;;;;;85.53;46.37;;;;;;;4.96;74.06;94343.55;1701542;84;21496;-58
2021/11/04 01:36:38;;;;;;;91.87;45.60;;;;;;;5.03;74.32;94341.45;1690088;83;21046;-57
2021/11/04 01:39:05;;;;;;;91.95;47.03;;;;;;;5.12;74.29;94351.78;1686982;83;21007;-57
2021/11/04 01:41:32;;;;;;;110.90;54.10;;;;;;;5.15;74.21;94346.23;1682347;83;21501;-58
2021/11/04 01:43:59;;;;;;;95.35;48.42;;;;;;;5.20;74.36;94340.31;1692886;83;21446;-57
2021/11/04 01:46:26;;;;;;;105.22;52.83;;;;;;;5.27;74.05;94344.23;1683424;83;21532;-57
2021/11/04 01:48:54;;;;;;;171.68;85.53;;;;;;;5.30;74.05;94326.44;1664221;84;21966;-57
2021/11/04 01:51:21;;;;;;;114.03;58.13;;;;;;;5.35;73.61;94341.51;1690331;84;21009;-57
2021/11/04 01:53:48;;;;;;;107.43;53.58;;;;;;;5.32;73.62;94321.91;1682182;83;20974;-57
2021/11/04 01:56:16;;;;;;;110.10;52.20;;;;;;;5.37;73.63;94315.95;1682499;84;21018;-58
2021/11/04 01:58:42;;;;;;;113.25;54.83;;;;;;;5.40;73.72;94319.21;1684415;83;21036;-57
2021/11/04 02:01:10;;;;;;;99.05;49.98;;;;;;;5.48;73.75;94319.21;1685774;83;21486;-57
2021/11/04 02:04:02;;;;;;;103.72;52.33;;;;;;;5.56;73.39;94304.20;1684688;83;21037;-57
2021/11/04 02:06:47;;;;;;;106.83;51.13;;;;;;;5.60;73.12;94310.36;1683037;83;21034;-56
2021/11/04 02:09:19;;;;;;;96.15;49.33;;;;;;;5.56;73.10;94309.66;1684775;84;20983;-57
2021/11/04 02:11:53;;;;;;;85.70;44.30;;;;;;;5.56;73.17;94304.20;1682552;83;21501;-57
2021/11/04 02:14:32;;;;;;;90.07;43.87;;;;;;;5.58;73.09;94290.92;1682976;84;21001;-58
2021/11/04 02:17:00;;;;;;;87.57;42.48;;;;;;;5.57;72.96;94282.58;1682214;84;21005;-57
2021/11/04 02:19:50;;;;;;;88.92;45.45;;;;;;;5.55;72.85;94282.98;1681118;83;21070;-57
2021/11/04 02:22:50;;;;;;;93.25;46.37;;;;;;;5.51;72.76;94289.71;1686163;83;21457;-58
2021/11/04 02:25:32;;;;;;;77.97;41.83;;;;;;;5.40;72.89;94290.58;1688817;83;21069;-58
2021/11/04 02:28:02;;;;;;;86.70;43.55;;;;;;;5.37;73.16;94286.72;1686424;83;21802;-57
2021/11/04 02:30:29;;;;;;;81.78;39.08;;;;;;;5.31;73.31;94283.56;1685433;83;21540;-56
2021/11/04 02:32:56;;;;;;;79.95;39.67;;;;;;;5.28;73.32;94274.26;1686557;83;21330;-58
2021/11/04 02:35:23;;;;;;;75.32;39.15;;;;;;;5.22;73.49;94262.16;1692477;83;21076;-58
2021/11/04 02:37:52;;;;;;;82.72;42.35;;;;;;;5.22;73.69;94271.13;1683635;83;20975;-58
2021/11/04 02:40:20;;;;;;;75.05;35.52;;;;;;;5.24;73.76;94256.47;1687456;84;21528;-57
2021/11/04 02:42:47;;;;;;;76.97;37.38;;;;;;;5.28;73.66;94268.05;1668503;84;20978;-57
2021/11/04 02:45:17;;;;;;;62.25;31.80;;;;;;;5.22;73.58;94244.44;1687205;83;20976;-57
2021/11/04 02:47:44;;;;;;;78.65;37.95;;;;;;;5.17;73.73;94254.49;1688970;83;21430;-57
2021/11/04 02:50:11;;;;;;;70.05;37.30;;;;;;;5.08;73.91;94252.94;1691532;83;21033;-57
2021/11/04 02:52:38;;;;;;;70.20;36.38;;;;;;;5.05;74.13;94234.13;1698036;83;21806;-56
2021/11/04 02:55:06;;;;;;;71.33;35.38;;;;;;;5.02;74.27;94232.25;1686166;83;21075;-56
2021/11/04 02:57:42;;;;;;;86.02;44.18;;;;;;;5.03;74.62;94248.77;1685881;83;21018;-55
2021/11/04 03:00:12;;;;;;;111.65;46.80;;;;;;;5.03;74.65;94236.51;1687178;83;21466;-57
2021/11/04 03:02:39;;;;;;;90.60;42.67;;;;;;;5.03;74.79;94228.91;1663083;84;21101;-57
2021/11/04 03:05:07;;;;;;;90.57;43.73;;;;;;;5.07;74.99;94223.56;1685900;83;21234;-57
2021/11/04 03:07:33;;;;;;;96.10;48.92;;;;;;;5.10;74.80;94220.56;1684220;84;21517;-57
2021/11/04 03:10:00;;;;;;;111.65;48.10;;;;;;;5.08;75.03;94221.00;1682280;85;21442;-57
2021/11/04 03:12:27;;;;;;;174.57;69.12;;;;;;;5.11;74.98;94222.87;1684261;83;21009;-58
2021/11/04 03:14:53;;;;;;;114.92;53.95;;;;;;;5.09;74.86;94223.12;1682904;83;21678;-58
2021/11/04 03:17:20;;;;;;;94.40;44.98;;;;;;;5.10;75.12;94230.88;1684395;83;21243;-57
2021/11/04 03:19:48;;;;;;;77.17;39.88;;;;;;;5.18;75.05;94236.33;1683170;82;20978;-58
2021/11/04 03:22:15;;;;;;;96.55;51.23;;;;;;;5.29;74.79;94234.14;1681597;83;21451;-57
2021/11/04 03:24:43;;;;;;;94.10;49.65;;;;;;;5.30;74.39;94235.09;1681060;83;20969;-56
2021/11/04 03:27:09;;;;;;;99.17;49.53;;;;;;;5.28;74.45;94240.17;1682785;84;21541;-57
2021/11/04 03:29:38;;;;;;;100.85;53.73;;;;;;;5.33;74.65;94237.54;1688143;84;21090;-57
2021/11/04 03:32:09;;;;;;;83.58;41.25;;;;;;;5.41;74.21;94234.83;1689649;84;21096;-56
2021/11/04 03:34:37;;;;;;;73.40;38.05;;;;;;;5.36;74.16;94228.50;1691198;83;21102;-57
2021/11/04 03:37:04;;;;;;;70.45;38.67;;;;;;;5.33;73.93;94227.41;1691854;83;20928;-57
2021/11/04 03:39:30;;;;;;;73.72;39.03;;;;;;;5.30;73.97;94228.85;1681845;83;20959;-57
2021/11/04 03:41:57;;;;;;;66.25;36.60;;;;;;;5.31;73.82;94215.39;1683170;83;21105;-55
2021/11/04 03:44:24;;;;;;;69.53;35.78;;;;;;;5.32;73.78;94220.42;1690690;83;21062;-55
2021/11/04 03:46:53;;;;;;;71.40;34.73;;;;;;;5.35;73.71;94214.12;1687073;83;21026;-57
2021/11/04 03:49:21;;;;;;;70.55;37.50;;;;;;;5.32;73.55;94208.73;1685541;83;21449;-57
2021/11/04 03:51:53;;;;;;;86.65;42.40;;;;;;;5.29;73.69;94213.10;1688248;83;21048;-58
2021/11/04 03:54:22;;;;;;;82.22;39.80;;;;;;;5.31;74.05;94218.89;1685726;83;21214;-58
2021/11/04 03:56:51;;;;;;;81.28;41.30;;;;;;;5.41;73.88;94232.86;1687120;83;21482;-57
2021/11/04 03:59:18;;;;;;;87.72;43.98;;;;;;;5.43;73.73;94235.92;1703480;83;20982;-57
2021/11/04 04:01:46;;;;;;;73.42;38.00;;;;;;;5.46;73.53;94230.97;1701591;83;21065;-57
2021/11/04 04:04:13;;;;;;;71.67;35.58;;;;;;;5.40;73.43;94240.12;1697009;83;21034;-56
2021/11/04 04:06:41;;;;;;;59.70;32.30;;;;;;;5.36;73.66;94221.69;1689473;83;21206;-56
2021/11/04 04:09:09;;;;;;;54.63;30.23;;;;;;;5.37;73.76;94233.55;1695772;83;20955;-56
2021/11/04 04:11:36;;;;;;;62.80;33.23;;;;;;;5.40;73.90;94234.66;1688051;83;21057;-57
2021/11/04 04:14:04;;;;;;;60.20;33.02;;;;;;;5.41;74.13;94228.77;1686107;84;20994;-56
2021/11/04 04:16:31;;;;;;;51.45;28.47;;;;;;;5.47;74.13;94239.35;1687348;82;21556;-57
2021/11/04 04:19:00;;;;;;;53.60;29.25;;;;;;;5.55;74.04;94239.34;1686515;83;21078;-56
2021/11/04 04:21:26;;;;;;;49.40;27.20;;;;;;;5.61;73.82;94236.87;1685313;83;21009;-57
2021/11/04 04:23:54;;;;;;;52.85;27.95;;;;;;;5.65;74.00;94238.91;1685678;83;21421;-58
2021/11/04 04:26:21;;;;;;;56.30;29.07;;;;;;;5.69;73.76;94234.90;1684000;84;20974;-58
2021/11/04 04:28:49;;;;;;;43.25;24.80;;;;;;;5.73;73.71;94227.38;1681685;83;21593;-57
2021/11/04 04:31:16;;;;;;;53.08;27.67;;;;;;;5.80;73.84;94225.86;1681536;84;21976;-57
2021/11/04 04:33:42;;;;;;;60.58;31.35;;;;;;;5.89;73.55;94222.52;1685271;83;20977;-56
2021/11/04 04:36:11;;;;;;;72.70;39.38;;;;;;;5.96;73.59;94216.89;1690179;83;21021;-57
2021/11/04 04:38:38;;;;;;;58.35;32.78;;;;;;;6.05;73.30;94215.66;1688671;83;21636;-57
2021/11/04 04:41:04;;;;;;;49.65;29.72;;;;;;;6.11;73.13;94211.98;1691688;84;20973;-57
2021/11/04 04:43:31;;;;;;;50.50;29.70;;;;;;;6.16;72.92;94209.33;1672595;84;21143;-57
2021/11/04 04:45:58;;;;;;;44.65;29.37;;;;;;;6.18;72.88;94208.29;1698735;83;21013;-56
2021/11/04 04:48:25;;;;;;;47.58;28.35;;;;;;;6.22;72.62;94218.52;1698008;83;20980;-57
2021/11/04 04:50:53;;;;;;;49.95;27.73;;;;;;;6.20;72.49;94213.50;1708697;83;20978;-56
2021/11/04 04:53:20;;;;;;;62.62;33.15;;;;;;;6.22;72.37;94216.56;1680056;83;20978;-57
2021/11/04 04:55:46;;;;;;;70.10;33.30;;;;;;;6.24;72.46;94201.09;1698940;82;21137;-57
2021/11/04 04:58:14;;;;;;;56.85;32.13;;;;;;;6.28;72.43;94194.92;1694408;84;20970;-56
2021/11/04 05:00:41;;;;;;;60.38;33.28;;;;;;;6.30;72.27;94190.58;1649202;84;20982;-58
2021/11/04 05:03:08;;;;;;;86.53;43.80;;;;;;;6.29;72.17;94186.31;1692095;83;21009;-57
2021/11/04 05:05:35;;;;;;;114.00;57.23;;;;;;;6.29;71.97;94181.44;1691083;83;21085;-59
2021/11/04 05:08:02;;;;;;;103.65;57.33;;;;;;;6.19;71.89;94179.78;1657383;85;21168;-58
2021/11/04 05:10:32;;;;;;;106.65;54.45;;;;;;;6.10;72.11;94181.77;1686152;83;21104;-57
2021/11/04 05:12:59;;;;;;;99.75;50.78;;;;;;;6.06;72.21;94181.70;1689699;83;21025;-58
2021/11/04 05:15:26;;;;;;;103.65;50.58;;;;;;;6.01;72.17;94189.06;1684618;83;21236;-57
2021/11/04 05:17:54;;;;;;;101.78;51.68;;;;;;;5.90;72.40;94181.74;1683468;84;20966;-57
2021/11/04 05:20:21;;;;;;;114.17;59.63;;;;;;;5.87;72.71;94181.24;1661994;84;21189;-57
2021/11/04 05:22:48;;;;;;;149.97;75.70;;;;;;;5.89;72.60;94185.67;1659189;85;21045;-58
2021/11/04 05:25:15;;;;;;;167.72;79.55;;;;;;;5.86;72.69;94183.80;1682133;84;21096;-57
2021/11/04 05:27:47;;;;;;;261.87;129.90;;;;;;;5.91;72.76;94190.09;1677203;85;21105;-57
2021/11/04 05:30:12;;;;;;;223.15;110.50;;;;;;;5.91;72.70;94183.27;1681467;83;20990;-57
2021/11/04 05:32:39;;;;;;;195.97;101.45;;;;;;;5.95;72.75;94185.33;1687855;84;21143;-58
2021/11/04 05:35:06;;;;;;;236.05;115.32;;;;;;;5.99;72.73;94185.38;1694028;82;20979;-58
2021/11/04 05:37:34;;;;;;;259.05;138.80;;;;;;;6.08;72.73;94186.91;1689800;84;21064;-56
2021/11/04 05:40:00;;;;;;;208.15;108.85;;;;;;;6.19;72.41;94189.34;1665116;85;20990;-59
2021/11/04 05:42:29;;;;;;;179.27;97.17;;;;;;;6.23;72.07;94190.78;1682484;83;21069;-58
2021/11/04 05:44:56;;;;;;;189.95;103.97;;;;;;;6.22;72.18;94181.64;1689645;83;21842;-57
2021/11/04 05:47:23;;;;;;;158.25;89.42;;;;;;;6.28;72.21;94182.05;1688351;83;20967;-59
2021/11/04 05:49:50;;;;;;;186.57;106.67;;;;;;;6.28;72.08;94190.83;1672143;83;21041;-65
2021/11/04 05:52:16;;;;;;;163.30;90.65;;;;;;;6.24;72.07;94188.80;1695741;83;20974;-59
2021/11/04 05:54:43;;;;;;;151.63;81.57;;;;;;;6.21;72.34;94182.84;1669306;84;21453;-58
2021/11/04 05:57:10;;;;;;;135.30;72.53;;;;;;;6.23;72.34;94187.27;1697266;83;21116;-58
2021/11/04 05:59:37;;;;;;;140.62;76.60;;;;;;;6.23;72.46;94181.81;1652256;83;21005;-59
2021/11/04 06:02:04;;;;;;;160.65;90.22;;;;;;;6.31;72.64;94186.64;1681007;83;20993;-58
2021/11/04 06:04:34;;;;;;;130.20;82.27;;;;;;;6.47;72.56;94185.80;1683504;83;21076;-59
2021/11/04 06:07:00;;;;;;;141.68;83.37;;;;;;;6.65;72.23;94178.63;1685591;83;21035;-58
2021/11/04 06:09:26;;;;;;;122.22;67.45;;;;;;;6.78;71.63;94175.90;1692553;83;21081;-58
2021/11/04 06:11:53;;;;;;;119.02;71.77;;;;;;;6.85;71.40;94168.87;1669917;83;20990;-59
2021/11/04 06:14:23;;;;;;;132.65;79.72;;;;;;;6.88;71.20;94167.99;1692897;83;21091;-59
2021/11/04 06:16:51;;;;;;;103.87;60.48;;;;;;;6.86;71.18;94165.69;1681750;84;21526;-58
2021/11/04 06:19:19;;;;;;;122.67;65.45;;;;;;;6.84;71.27;94179.61;1686248;83;21040;-58
2021/11/04 06:21:45;;;;;;;149.02;88.78;;;;;;;6.85;71.38;94167.50;1678523;84;21497;-60
2021/11/04 06:24:12;;;;;;;148.28;79.62;;;;;;;6.91;71.35;94161.64;1667757;84;21094;-60
2021/11/04 06:26:39;;;;;;;123.82;73.12;;;;;;;7.03;71.30;94158.91;1701295;82;21594;-59
2021/11/04 06:29:06;;;;;;;152.12;88.12;;;;;;;7.10;70.79;94151.83;1671562;83;21172;-58
2021/11/04 06:31:33;;;;;;;125.50;74.00;;;;;;;7.08;70.68;94146.04;1691967;83;21015;-58
2021/11/04 06:34:00;;;;;;;112.45;65.95;;;;;;;7.08;70.59;94142.72;1669020;83;21071;-59
2021/11/04 06:36:27;;;;;;;93.20;55.05;;;;;;;7.12;70.45;94141.99;1674140;84;21102;-58
2021/11/04 06:38:53;;;;;;;86.50;51.02;;;;;;;7.19;70.51;94134.92;1689064;83;20996;-61
2021/11/04 06:41:20;;;;;;;65.83;41.95;;;;;;;7.28;70.46;94136.39;1657637;85;21003;-58
2021/11/04 06:43:47;;;;;;;53.83;34.67;;;;;;;7.38;70.31;94138.62;1670235;85;21050;-59
2021/11/04 06:46:14;;;;;;;34.90;22.75;;;;;;;7.46;70.00;94144.00;1643160;85;21804;-60
2021/11/04 06:48:45;;;;;;;36.58;23.35;;;;;;;7.46;69.83;94142.05;1633971;85;21110;-60
2021/11/04 06:51:14;;;;;;;34.60;23.00;;;;;;;7.47;69.90;94140.84;1665061;83;21019;-59
2021/11/04 06:53:46;;;;;;;43.50;25.50;;;;;;;7.52;69.99;94150.47;1654371;85;21106;-59
2021/11/04 06:56:13;;;;;;;37.63;22.65;;;;;;;7.68;70.08;94140.13;1652489;85;21621;-58
2021/11/04 06:58:40;;;;;;;26.87;17.87;;;;;;;7.83;69.76;94138.43;1628895;86;21148;-59
2021/11/04 07:01:10;;;;;;;30.08;19.30;;;;;;;7.94;69.29;94127.11;1670035;84;21070;-59
2021/11/04 07:03:45;;;;;;;72.05;39.08;;;;;;;8.02;68.99;94140.10;1643562;84;21100;-60
2021/11/04 07:06:12;;;;;;;64.65;38.40;;;;;;;8.04;69.05;94134.19;1653615;84;20998;-61
2021/11/04 07:08:44;;;;;;;57.88;34.08;;;;;;;8.06;69.20;94131.15;1630237;85;21092;-63
2021/11/04 07:11:13;;;;;;;48.50;31.27;;;;;;;8.14;69.15;94122.86;1664711;84;21198;-66
2021/11/04 07:13:40;;;;;;;55.10;35.33;;;;;;;8.18;68.99;94108.45;1635115;85;21090;-61
2021/11/04 07:16:07;;;;;;;71.67;42.43;;;;;;;8.17;68.92;94101.41;1655940;84;21459;-65
2021/11/04 07:18:34;;;;;;;73.57;45.80;;;;;;;8.24;69.06;94086.09;1645467;85;21057;-61
2021/11/04 07:21:26;;;;;;;110.55;64.22;;;;;;;8.40;68.90;94091.99;1648863;84;21148;-60
2021/11/04 07:23:59;;;;;;;137.07;79.65;;;;;;;8.56;68.56;94088.41;1642865;85;21313;-60
2021/11/04 07:26:37;;;;;;;;;;;;;;;8.79;68.34;94074.19;1669987;84;21119;-57
2021/11/04 07:29:08;;;;;;;97.72;51.98;;;;;;;8.98;67.81;94064.80;1643779;86;20156;-59
2021/11/04 07:31:37;;;;;;;80.47;48.00;;;;;;;9.11;67.44;94060.71;1630877;85;21102;-58
2021/11/04 07:34:07;;;;;;;61.30;38.08;;;;;;;9.22;67.37;94050.08;1657708;84;21080;-65
2021/11/04 07:36:38;;;;;;;61.10;38.58;;;;;;;9.37;67.01;94036.52;1666065;83;21160;-60
2021/11/04 07:39:05;;;;;;;59.95;38.67;;;;;;;9.54;66.89;94038.53;1696455;83;21123;-58
2021/11/04 07:41:34;;;;;;;59.00;35.63;;;;;;;9.84;66.45;94034.09;1691297;83;21212;-59
2021/11/04 07:44:02;;;;;;;54.40;34.23;;;;;;;10.09;66.07;94036.52;1706811;81;21068;-69
2021/11/04 07:46:29;;;;;;;80.10;43.40;;;;;;;10.27;65.51;94032.36;1698488;83;21079;-65
2021/11/04 07:48:58;;;;;;;52.38;30.88;;;;;;;10.45;64.87;94022.69;1698571;82;21195;-63
2021/11/04 07:51:25;;;;;;;45.40;28.02;;;;;;;10.66;64.16;94028.56;1699659;82;21030;-60
2021/11/04 07:53:52;;;;;;;49.50;30.62;;;;;;;10.80;63.56;94027.30;1678350;83;21132;-69
2021/11/04 07:56:19;;;;;;;51.65;29.57;;;;;;;10.99;63.28;94011.59;1693353;82;21133;-61
2021/11/04 07:58:46;;;;;;;48.63;32.15;;;;;;;11.20;62.66;94007.80;1709128;82;21018;-65
2021/11/04 08:01:13;;;;;;;70.42;41.73;;;;;;;11.38;63.04;93996.66;1675310;83;22248;-64
2021/11/04 08:03:43;;;;;;;71.57;41.05;;;;;;;11.59;62.57;93994.26;1680497;82;21095;-61
2021/11/04 08:06:09;;;;;;;60.92;38.15;;;;;;;11.71;61.63;93980.82;1707174;81;21033;-62
2021/11/04 08:08:37;;;;;;;50.83;32.10;;;;;;;11.81;61.05;93972.63;1694547;82;21492;-63
2021/11/04 08:11:04;;;;;;;48.10;29.60;;;;;;;11.94;61.35;93959.95;1714065;82;21184;-66
2021/11/04 08:13:30;;;;;;;49.38;29.60;;;;;;;12.08;61.41;93946.80;1684552;83;22204;-60
2021/11/04 08:15:58;;;;;;;37.73;24.55;;;;;;;12.26;61.17;93939.06;1693989;82;21755;-63
2021/11/04 08:18:27;;;;;;;31.48;20.65;;;;;;;12.46;60.29;93946.67;1687035;83;21121;-60
2021/11/04 08:20:54;;;;;;;33.73;20.48;;;;;;;12.54;60.06;93945.80;1699801;81;21025;-67
2021/11/04 08:23:21;;;;;;;31.25;18.57;;;;;;;12.63;59.86;93949.20;1673244;83;21067;-64
2021/11/04 08:25:49;;;;;;;28.40;17.95;;;;;;;12.78;59.92;93956.83;1706903;82;21128;-64
2021/11/04 08:28:16;;;;;;;28.55;17.20;;;;;;;12.93;59.69;93943.01;1700038;82;21555;-66
2021/11/04 08:30:43;;;;;;;31.17;19.12;;;;;;;12.97;58.94;93953.22;1665097;84;21080;-62
2021/11/04 08:33:11;;;;;;;27.65;15.78;;;;;;;13.01;58.87;93949.63;1668085;83;21070;-63
2021/11/04 08:35:38;;;;;;;23.47;14.50;;;;;;;13.07;58.75;93942.95;1689033;82;21581;-63
2021/11/04 08:38:04;;;;;;;29.52;13.78;;;;;;;13.30;59.13;93947.50;1701471;82;21886;-61
2021/11/04 08:40:32;;;;;;;23.32;14.80;;;;;;;13.63;58.73;93947.16;1687205;83;21095;-62
2021/11/04 08:43:00;;;;;;;28.80;15.20;;;;;;;13.97;58.37;93947.66;1699958;82;21104;-61
2021/11/04 08:45:28;;;;;;;23.10;12.07;;;;;;;14.29;57.37;93943.08;1713815;82;21049;-59
2021/11/04 08:47:55;;;;;;;21.10;14.60;;;;;;;14.65;56.22;93931.30;1678513;84;21101;-67
2021/11/04 08:50:22;;;;;;;28.90;14.65;;;;;;;14.90;55.13;93932.61;1640158;85;21163;-67
2021/11/04 08:52:52;;;;;;;47.60;27.70;;;;;;;14.99;55.22;93929.62;1683372;83;21078;-68
2021/11/04 08:55:18;;;;;;;25.32;17.30;;;;;;;15.06;54.84;93931.95;1660132;83;21659;-61
2021/11/04 08:57:45;;;;;;;24.92;14.75;;;;;;;15.13;54.46;93933.47;1708468;83;21022;-60
2021/11/04 09:00:13;;;;;;;20.88;12.10;;;;;;;15.16;54.61;93924.20;1704574;83;21191;-59
2021/11/04 09:02:41;;;;;;;22.90;12.50;;;;;;;15.16;54.50;93920.04;1709605;82;21759;-61
2021/11/04 09:05:09;;;;;;;33.02;16.52;;;;;;;15.21;54.54;93926.23;1715787;80;21939;-61
2021/11/04 09:07:38;;;;;;;53.75;25.62;;;;;;;15.26;54.61;93926.87;1704392;82;21088;-64
2021/11/04 09:10:07;;;;;;;42.23;22.35;;;;;;;15.31;54.62;93935.25;1671380;82;21179;-61
2021/11/04 09:12:36;;;;;;;41.83;21.97;;;;;;;15.43;54.26;93939.59;1701811;82;21054;-62
2021/11/04 09:15:04;;;;;;;47.65;24.07;;;;;;;15.59;53.84;93936.14;1710170;82;21122;-60
2021/11/04 09:17:32;;;;;;;44.88;25.43;;;;;;;15.79;53.69;93947.05;1696303;83;21108;-60
2021/11/04 09:19:59;;;;;;;44.50;22.40;;;;;;;15.94;52.97;93958.66;1698964;82;21099;-61
2021/11/04 09:22:26;;;;;;;36.45;22.17;;;;;;;16.02;52.70;93948.61;1688952;83;21063;-61
2021/11/04 09:24:53;;;;;;;36.63;18.40;;;;;;;16.09;52.48;93946.73;1695647;83;21251;-60
2021/11/04 09:27:21;;;;;;;24.50;14.40;;;;;;;16.09;52.47;93938.41;1694272;83;21145;-59
2021/11/04 09:29:48;;;;;;;19.50;12.63;;;;;;;16.06;52.71;93942.19;1683408;83;21040;-61
2021/11/04 09:32:15;;;;;;;23.87;15.15;;;;;;;16.01;52.83;93926.30;1678407;83;21168;-62
2021/11/04 09:34:43;;;;;;;25.60;14.38;;;;;;;15.98;52.85;93920.36;1680258;82;21165;-62
2021/11/04 09:37:10;;;;;;;23.20;12.88;;;;;;;15.96;52.83;93921.50;1688719;82;21065;-61
2021/11/04 09:39:37;;;;;;;30.80;17.82;;;;;;;15.97;52.68;93914.69;1691790;82;21116;-63
2021/11/04 09:42:05;;;;;;;28.55;15.83;;;;;;;16.02;52.48;93927.81;1685566;82;21085;-64
2021/11/04 09:44:32;;;;;;;44.80;19.15;;;;;;;16.08;52.62;93913.30;1692984;82;21090;-61
2021/11/04 09:47:00;;;;;;;43.02;21.17;;;;;;;16.21;52.63;93912.20;1697720;81;21674;-60
2021/11/04 09:49:28;;;;;;;44.65;21.60;;;;;;;16.41;52.28;93907.81;1698154;83;21099;-59
2021/11/04 09:51:58;;;;;;;49.13;25.85;;;;;;;16.69;51.65;93896.08;1682996;82;21448;-60
2021/11/04 09:54:25;;;;;;;45.78;25.10;;;;;;;16.98;51.25;93897.67;1692912;82;21576;-62
2021/11/04 09:56:53;;;;;;;56.15;26.25;;;;;;;17.36;50.55;93889.11;1689726;82;21132;-63
2021/11/04 09:59:20;;;;;;;43.25;23.65;;;;;;;17.76;50.18;93875.91;1672507;83;21746;-60
2021/11/04 10:01:49;;;;;;;48.23;25.65;;;;;;;18.08;49.24;93890.28;1655117;83;21567;-60
2021/11/04 10:04:16;;;;;;;49.80;28.12;;;;;;;18.24;48.73;93892.95;1676347;83;21166;-61
2021/11/04 10:06:43;;;;;;;197.50;101.07;;;;;;;18.29;48.36;93903.31;1683354;82;21046;-62
2021/11/04 10:09:12;;;;;;;98.35;40.50;;;;;;;18.34;48.06;93919.25;1677196;82;21091;-63
2021/11/04 10:11:42;;;;;;;77.97;38.85;;;;;;;18.35;47.93;93917.97;1692165;83;21053;-61
2021/11/04 10:14:13;;;;;;;61.70;34.05;;;;;;;18.43;48.15;93897.28;1703293;82;21172;-59
2021/11/04 10:16:41;;;;;;;39.20;18.12;;;;;;;18.68;48.18;93913.52;1691907;82;21163;-62
2021/11/04 10:19:10;;;;;;;22.17;12.25;;;;;;;18.97;46.87;93912.77;1720815;82;21068;-60
2021/11/04 10:21:41;;;;;;;27.73;12.15;;;;;;;19.12;45.93;93910.34;1707988;81;21557;-60
2021/11/04 10:24:19;;;;;;;27.35;10.40;;;;;;;19.14;45.78;93898.02;1702715;82;21130;-62
2021/11/04 10:26:52;;;;;;;23.25;9.28;;;;;;;19.21;45.95;93898.86;1682379;83;21110;-65
2021/11/04 10:29:17;;;;;;;10.75;5.80;;;;;;;19.44;46.00;93875.03;1694150;82;21055;-60
2021/11/04 10:31:46;;;;;;;6.10;3.42;;;;;;;19.60;45.27;93910.33;1688715;82;21005;-63
2021/11/04 10:34:17;;;;;;;9.08;3.20;;;;;;;19.56;44.86;93902.91;1688925;82;21052;-63
2021/11/04 10:36:45;;;;;;;10.88;3.08;;;;;;;19.41;44.76;93908.14;1688281;82;21061;-61
2021/11/04 10:39:12;;;;;;;6.72;2.72;;;;;;;19.25;45.84;93897.95;1710275;82;21680;-62
2021/11/04 10:41:40;;;;;;;8.50;2.65;;;;;;;19.21;46.69;93898.86;1674691;82;21072;-62
2021/11/04 10:44:17;;;;;;;16.12;4.67;;;;;;;19.24;46.95;93895.05;1714670;82;21170;-58
2021/11/04 10:46:50;;;;;;;11.90;5.12;;;;;;;19.27;47.00;93892.59;1694356;82;22198;-59
2021/11/04 10:49:19;;;;;;;13.50;5.08;;;;;;;19.25;46.19;93906.31;1687292;83;21063;-60
2021/11/04 10:52:03;;;;;;;9.43;4.67;;;;;;;19.17;46.16;93897.00;1686588;83;21551;-58
2021/11/04 10:54:50;;;;;;;15.70;7.47;;;;;;;19.13;46.13;93889.55;1699012;83;21149;-60
2021/11/04 10:57:41;;;;;;;11.48;6.12;;;;;;;19.11;46.44;93875.38;1691535;82;21175;-60
2021/11/04 11:00:23;;;;;;;10.85;6.03;;;;;;;19.14;46.08;93879.90;1693715;82;21470;-62
2021/11/04 11:03:07;;;;;;;22.40;8.48;;;;;;;19.13;46.15;93870.02;1688585;83;21128;-60
2021/11/04 11:05:36;;;;;;;17.52;6.55;;;;;;;19.11;46.37;93867.63;1694656;82;21112;-60
2021/11/04 11:08:07;;;;;;;24.02;8.15;;;;;;;19.06;46.51;93872.02;1655409;84;21714;-62
2021/11/04 11:10:35;;;;;;;24.15;12.75;;;;;;;19.04;46.49;93858.47;1671489;84;22140;-61
2021/11/04 11:13:04;;;;;;;20.75;11.22;;;;;;;19.01;46.74;93848.37;1679484;83;21081;-60
2021/11/04 11:15:39;;;;;;;26.48;12.78;;;;;;;18.98;46.75;93841.05;1657535;85;21113;-61
2021/11/04 11:18:07;;;;;;;22.67;8.88;;;;;;;18.97;46.95;93841.68;1637614;86;21063;-60
2021/11/04 11:20:45;;;;;;;19.05;11.25;;;;;;;18.93;47.11;93837.66;1651924;84;21149;-59
2021/11/04 11:23:18;;;;;;;29.23;9.68;;;;;;;18.86;47.38;93832.02;1658028;84;21073;-58
2021/11/04 11:26:01;;;;;;;13.93;7.50;;;;;;;18.81;47.91;93823.09;1659075;84;21029;-61
2021/11/04 11:28:35;;;;;;;14.80;8.20;;;;;;;18.80;48.15;93838.30;1658647;84;21493;-61